Terminal Aerodrome Forecast
Issued by NWS

Home | Current Version | Previous Version | Text Only | Print | Product List | Glossary On
Versions: 1 2 3 4 5 6 7 8 9 10 11 12 13 14 15 16 17 18 19 20 21 22 23 24 25 26 27
337
FTUS46 KLOX 220110 AAB
TAFPRB
TAF AMD
KPRB 220110Z 2201/2224 20008KT P6SM SCT025 OVC100
     FM220500 16010KT P6SM -SHRA SCT025 OVC050
     FM220900 16017G29KT 6SM -RA BR BKN025 OVC050
     FM221500 17014G26KT 3SM +RA BR BKN012 OVC025
     FM221900 19015G25KT 4SM -RA BKN025 OVC040
     FM222100 22010G18KT 6SM -SHRA BR BKN025 OVC050=

USA.gov is the U.S. government's official web portal to all federal, state and local government web resources and services.